Time;durP1;ratioP1;P1;durP2;ratioP2;P2;SDS_P1;SDS_P2;PMS_P1;PMS_P2;Temp;Humidity;BMP_temperature;BMP_pressure;BME280_temperature;BME280_humidity;BME280_pressure;Samples;Min_cycle;Max_cycle;Signal;HPM_P1;HPM_P2
2023/10/25 00:00:39;;;;;;;;;;;;;;;;;;5048427;28;19925;-70
2023/10/25 00:03:10;;;;;;;;;;;;;;;;;;5044610;28;20379;-70
2023/10/25 00:05:37;;;;;;;;;;;;;;;;;;5049193;28;19929;-70
2023/10/25 00:08:04;;;;;;;;;;;;;;;;;;5051663;28;19929;-71
2023/10/25 00:10:31;;;;;;;;;;;;;;;;;;5050913;28;19924;-71
2023/10/25 00:12:58;;;;;;;;;;;;;;;;;;5051334;28;19925;-70
2023/10/25 00:15:26;;;;;;;;;;;;;;;;;;5051240;28;19924;-71
2023/10/25 00:17:53;;;;;;;;;;;;;;;;;;5051244;28;20023;-71
2023/10/25 00:20:20;;;;;;;;;;;;;;;;;;5051597;28;20035;-70
2023/10/25 00:22:47;;;;;;;;;;;;;;;;;;5052051;28;19925;-71
2023/10/25 00:25:14;;;;;;;;;;;;;;;;;;5048016;28;20300;-71
2023/10/25 00:27:41;;;;;;;;;;;;;;;;;;5052491;28;19978;-71
2023/10/25 00:30:08;;;;;;;;;;;;;;;;;;5052014;28;20333;-71
2023/10/25 00:32:35;;;;;;;;;;;;;;;;;;5051607;28;19932;-70
2023/10/25 00:35:02;;;;;;;;;;;;;;;;;;5045868;28;19932;-70
2023/10/25 00:37:29;;;;;;;;;;;;;;;;;;5050290;28;19931;-70
2023/10/25 00:39:56;;;;;;;;;;;;;;;;;;5050510;28;19925;-70
2023/10/25 00:42:23;;;;;;;;;;;;;;;;;;5051589;28;19925;-70
2023/10/25 00:44:50;;;;;;;;;;;;;;;;;;5049927;28;19928;-70
2023/10/25 00:47:17;;;;;;;;;;;;;;;;;;5051568;28;20696;-70
2023/10/25 00:49:44;;;;;;;;;;;;;;;;;;5050118;28;19929;-72
2023/10/25 00:52:11;;;;;;;;;;;;;;;;;;5050904;28;19964;-70
2023/10/25 00:54:38;;;;;;;;;;;;;;;;;;5049696;28;20351;-71
2023/10/25 00:57:05;;;;;;;;;;;;;;;;;;5052078;28;20002;-71
2023/10/25 00:59:33;;;;;;;;;;;;;;;;;;5051757;28;19932;-71
2023/10/25 01:02:00;;;;;;;;;;;;;;;;;;5066677;28;20268;-70
2023/10/25 01:04:28;;;;;;;;;;;;;;;;;;5060873;28;19925;-70
2023/10/25 01:06:55;;;;;;;;;;;;;;;;;;5051312;28;19932;-70
2023/10/25 01:09:22;;;;;;;;;;;;;;;;;;5044607;28;19925;-70
2023/10/25 01:11:49;;;;;;;;;;;;;;;;;;5050175;28;19929;-70
2023/10/25 01:14:16;;;;;;;;;;;;;;;;;;5050095;28;20073;-70
2023/10/25 01:16:43;;;;;;;;;;;;;;;;;;5050292;28;20391;-70
2023/10/25 01:19:10;;;;;;;;;;;;;;;;;;5052003;28;19925;-71
2023/10/25 01:21:37;;;;;;;;;;;;;;;;;;5052134;28;19986;-70
2023/10/25 01:24:04;;;;;;;;;;;;;;;;;;5050819;28;19974;-70
2023/10/25 01:26:31;;;;;;;;;;;;;;;;;;5048657;28;19982;-70
2023/10/25 01:28:58;;;;;;;;;;;;;;;;;;5050260;28;19929;-70
2023/10/25 01:31:25;;;;;;;;;;;;;;;;;;5051872;28;19978;-70
2023/10/25 01:33:52;;;;;;;;;;;;;;;;;;5051119;28;19925;-70
2023/10/25 01:36:19;;;;;;;;;;;;;;;;;;5050747;28;20029;-70
2023/10/25 01:38:46;;;;;;;;;;;;;;;;;;5051533;28;19964;-70
2023/10/25 01:41:16;;;;;;;;;;;;;;;;;;5049993;28;19925;-70
2023/10/25 01:43:43;;;;;;;;;;;;;;;;;;5049974;28;20303;-70
2023/10/25 01:46:10;;;;;;;;;;;;;;;;;;5050604;28;19924;-70
2023/10/25 01:48:37;;;;;;;;;;;;;;;;;;5050584;28;19983;-70
2023/10/25 01:51:04;;;;;;;;;;;;;;;;;;5050970;28;19925;-70
2023/10/25 01:53:31;;;;;;;;;;;;;;;;;;5053435;28;20300;-70
2023/10/25 01:55:58;;;;;;;;;;;;;;;;;;5051146;28;19925;-70
2023/10/25 01:58:25;;;;;;;;;;;;;;;;;;5051823;28;19925;-70
2023/10/25 02:00:52;;;;;;;;;;;;;;;;;;5044259;28;19925;-70
2023/10/25 02:03:19;;;;;;;;;;;;;;;;;;5054735;28;19932;-70
2023/10/25 02:05:46;;;;;;;;;;;;;;;;;;5053216;28;19924;-70
2023/10/25 02:08:13;;;;;;;;;;;;;;;;;;5053758;28;19925;-70
2023/10/25 02:10:41;;;;;;;;;;;;;;;;;;5053275;28;19929;-70
2023/10/25 02:13:08;;;;;;;;;;;;;;;;;;5052782;28;20375;-70
2023/10/25 02:15:35;;;;;;;;;;;;;;;;;;5052312;28;19925;-71
2023/10/25 02:18:02;;;;;;;;;;;;;;;;;;5053873;28;20432;-69
2023/10/25 02:20:29;;;;;;;;;;;;;;;;;;5052825;28;19967;-70
2023/10/25 02:22:56;;;;;;;;;;;;;;;;;;5053098;28;19964;-70
2023/10/25 02:25:23;;;;;;;;;;;;;;;;;;5053344;28;19979;-70
2023/10/25 02:27:50;;;;;;;;;;;;;;;;;;5052766;28;19925;-70
2023/10/25 02:30:17;;;;;;;;;;;;;;;;;;5054082;28;19971;-70
2023/10/25 02:32:44;;;;;;;;;;;;;;;;;;5052363;28;19925;-71
2023/10/25 02:35:12;;;;;;;;;;;;;;;;;;5045588;28;19929;-73
2023/10/25 02:37:39;;;;;;;;;;;;;;;;;;5053512;28;19928;-72
2023/10/25 02:40:06;;;;;;;;;;;;;;;;;;5053110;28;20387;-70
2023/10/25 02:42:35;;;;;;;;;;;;;;;;;;5053065;28;20288;-70
2023/10/25 02:45:02;;;;;;;;;;;;;;;;;;5053392;28;20371;-70
2023/10/25 02:47:29;;;;;;;;;;;;;;;;;;5044558;28;20114;-71
2023/10/25 02:49:57;;;;;;;;;;;;;;;;;;5053846;28;19929;-70
2023/10/25 02:52:24;;;;;;;;;;;;;;;;;;5049831;28;20019;-70
2023/10/25 02:54:51;;;;;;;;;;;;;;;;;;5052602;28;20323;-70
2023/10/25 02:57:18;;;;;;;;;;;;;;;;;;5052755;28;19928;-70
2023/10/25 02:59:45;;;;;;;;;;;;;;;;;;5053952;28;19932;-70
2023/10/25 03:02:13;;;;;;;;;;;;;;;;;;5052954;28;20380;-70
2023/10/25 03:04:40;;;;;;;;;;;;;;;;;;5053522;28;19986;-70
2023/10/25 03:07:07;;;;;;;;;;;;;;;;;;5052680;28;20422;-70
2023/10/25 03:09:34;;;;;;;;;;;;;;;;;;5035262;28;20372;-70
2023/10/25 03:12:01;;;;;;;;;;;;;;;;;;5051473;28;19925;-70
2023/10/25 03:14:28;;;;;;;;;;;;;;;;;;5051789;28;19932;-69
2023/10/25 03:16:55;;;;;;;;;;;;;;;;;;5053621;28;19924;-70
2023/10/25 03:19:22;;;;;;;;;;;;;;;;;;5049504;28;19928;-70
2023/10/25 03:21:49;;;;;;;;;;;;;;;;;;5041177;28;20379;-71
2023/10/25 03:24:16;;;;;;;;;;;;;;;;;;5051530;28;19925;-70
2023/10/25 03:26:43;;;;;;;;;;;;;;;;;;5051749;28;19932;-70
2023/10/25 03:29:11;;;;;;;;;;;;;;;;;;5050801;28;20002;-70
2023/10/25 03:31:39;;;;;;;;;;;;;;;;;;5047848;28;19978;-70
2023/10/25 03:34:06;;;;;;;;;;;;;;;;;;5048838;28;19979;-70
2023/10/25 03:36:33;;;;;;;;;;;;;;;;;;5052181;28;20407;-70
2023/10/25 03:39:00;;;;;;;;;;;;;;;;;;5051439;28;19970;-70
2023/10/25 03:41:27;;;;;;;;;;;;;;;;;;5051333;28;19929;-70
2023/10/25 03:43:54;;;;;;;;;;;;;;;;;;5052080;28;20001;-70
2023/10/25 03:46:21;;;;;;;;;;;;;;;;;;5052432;28;20368;-70
2023/10/25 03:48:48;;;;;;;;;;;;;;;;;;5050355;28;19932;-70
2023/10/25 03:51:15;;;;;;;;;;;;;;;;;;5050818;28;19933;-70
2023/10/25 03:53:42;;;;;;;;;;;;;;;;;;5051826;28;19932;-70
2023/10/25 03:56:09;;;;;;;;;;;;;;;;;;5051097;28;19925;-70
2023/10/25 03:58:38;;;;;;;;;;;;;;;;;;5048418;28;22127;-70
2023/10/25 04:01:05;;;;;;;;;;;;;;;;;;5040843;28;20371;-71
2023/10/25 04:03:32;;;;;;;;;;;;;;;;;;5051401;28;19924;-70
2023/10/25 04:05:59;;;;;;;;;;;;;;;;;;5052537;28;19978;-70
2023/10/25 04:08:26;;;;;;;;;;;;;;;;;;5051473;28;20363;-71
2023/10/25 04:10:53;;;;;;;;;;;;;;;;;;5047256;28;19983;-71
2023/10/25 04:13:20;;;;;;;;;;;;;;;;;;5047237;28;20295;-71
2023/10/25 04:15:47;;;;;;;;;;;;;;;;;;5051322;28;19929;-70
2023/10/25 04:18:14;;;;;;;;;;;;;;;;;;5052089;28;20342;-70
2023/10/25 04:20:41;;;;;;;;;;;;;;;;;;5049930;28;19929;-67
2023/10/25 04:23:08;;;;;;;;;;;;;;;;;;5051986;28;19925;-71
2023/10/25 04:25:35;;;;;;;;;;;;;;;;;;5051919;28;19928;-71
2023/10/25 04:28:02;;;;;;;;;;;;;;;;;;5049169;28;20280;-71
2023/10/25 04:30:29;;;;;;;;;;;;;;;;;;5050940;28;19931;-70
2023/10/25 04:32:56;;;;;;;;;;;;;;;;;;5050778;28;19929;-71
2023/10/25 04:35:23;;;;;;;;;;;;;;;;;;5052745;28;19925;-71
2023/10/25 04:37:50;;;;;;;;;;;;;;;;;;5052507;28;20387;-71
2023/10/25 04:40:17;;;;;;;;;;;;;;;;;;5049791;28;19929;-72
2023/10/25 04:42:46;;;;;;;;;;;;;;;;;;5050620;28;19968;-71
2023/10/25 04:45:14;;;;;;;;;;;;;;;;;;5052361;28;19944;-70
2023/10/25 04:47:41;;;;;;;;;;;;;;;;;;5050746;28;19925;-71
2023/10/25 04:50:08;;;;;;;;;;;;;;;;;;5050469;28;19979;-72
2023/10/25 04:52:35;;;;;;;;;;;;;;;;;;5051623;28;20010;-71
2023/10/25 04:55:02;;;;;;;;;;;;;;;;;;5051496;28;19933;-70
2023/10/25 04:57:29;;;;;;;;;;;;;;;;;;5050008;28;19928;-71
2023/10/25 04:59:56;;;;;;;;;;;;;;;;;;5049855;28;20342;-70
2023/10/25 05:02:23;;;;;;;;;;;;;;;;;;5051405;28;19925;-70
2023/10/25 05:04:50;;;;;;;;;;;;;;;;;;5050313;28;19928;-69
2023/10/25 05:07:17;;;;;;;;;;;;;;;;;;5042337;28;19929;-69
2023/10/25 05:09:44;;;;;;;;;;;;;;;;;;5046182;28;19979;-69
2023/10/25 05:12:11;;;;;;;;;;;;;;;;;;5049906;28;20354;-69
2023/10/25 05:14:38;;;;;;;;;;;;;;;;;;5050328;28;19986;-69
2023/10/25 05:17:06;;;;;;;;;;;;;;;;;;5050805;28;19929;-69
2023/10/25 05:19:34;;;;;;;;;;;;;;;;;;5048701;28;19960;-69
2023/10/25 05:22:01;;;;;;;;;;;;;;;;;;5045087;28;19931;-69
2023/10/25 05:24:28;;;;;;;;;;;;;;;;;;5041620;28;19948;-69
2023/10/25 05:26:55;;;;;;;;;;;;;;;;;;5035754;28;19942;-68
2023/10/25 05:29:22;;;;;;;;;;;;;;;;;;5043241;28;20389;-68
2023/10/25 05:31:49;;;;;;;;;;;;;;;;;;5048079;28;19978;-69
2023/10/25 05:34:16;;;;;;;;;;;;;;;;;;5044259;28;19979;-68
2023/10/25 05:36:44;;;;;;;;;;;;;;;;;;5048286;28;19932;-68
2023/10/25 05:39:11;;;;;;;;;;;;;;;;;;5054928;28;20063;-68
2023/10/25 05:41:38;;;;;;;;;;;;;;;;;;5043683;28;19925;-69
2023/10/25 05:44:05;;;;;;;;;;;;;;;;;;5039205;28;20342;-68
2023/10/25 05:46:32;;;;;;;;;;;;;;;;;;5054950;28;19929;-68
2023/10/25 05:48:59;;;;;;;;;;;;;;;;;;5053079;28;19971;-69
2023/10/25 05:51:26;;;;;;;;;;;;;;;;;;5051083;28;20011;-68
2023/10/25 05:53:53;;;;;;;;;;;;;;;;;;5052893;28;19998;-68
2023/10/25 05:56:24;;;;;;;;;;;;;;;;;;5054679;28;19979;-69
2023/10/25 05:58:51;;;;;;;;;;;;;;;;;;5042824;28;20011;-69
2023/10/25 06:01:18;;;;;;;;;;;;;;;;;;5045027;28;19925;-69
2023/10/25 06:03:45;;;;;;;;;;;;;;;;;;5056907;28;19970;-68
2023/10/25 06:06:12;;;;;;;;;;;;;;;;;;5048999;28;19994;-69
2023/10/25 06:08:39;;;;;;;;;;;;;;;;;;5045677;28;19932;-69
2023/10/25 06:11:06;;;;;;;;;;;;;;;;;;5051041;28;19987;-69
2023/10/25 06:13:33;;;;;;;;;;;;;;;;;;5052447;28;19951;-69
2023/10/25 06:16:00;;;;;;;;;;;;;;;;;;5048486;28;20027;-68
2023/10/25 06:18:30;;;;;;;;;;;;;;;;;;5044371;28;19960;-68
2023/10/25 06:20:58;;;;;;;;;;;;;;;;;;5049020;28;20459;-69
2023/10/25 06:23:25;;;;;;;;;;;;;;;;;;5046257;28;19928;-69
2023/10/25 06:25:52;;;;;;;;;;;;;;;;;;5048200;28;19960;-68
2023/10/25 06:28:19;;;;;;;;;;;;;;;;;;5043351;28;19925;-68
2023/10/25 06:30:46;;;;;;;;;;;;;;;;;;5038110;28;19925;-70
2023/10/25 06:33:13;;;;;;;;;;;;;;;;;;5039611;28;19929;-70
2023/10/25 06:35:40;;;;;;;;;;;;;;;;;;5047293;28;19932;-70
2023/10/25 06:38:07;;;;;;;;;;;;;;;;;;5040424;28;19982;-71
2023/10/25 06:40:34;;;;;;;;;;;;;;;;;;5052483;28;19924;-70
2023/10/25 06:43:01;;;;;;;;;;;;;;;;;;5048987;28;19925;-70
2023/10/25 06:45:28;;;;;;;;;;;;;;;;;;5046199;28;19967;-72
2023/10/25 06:47:56;;;;;;;;;;;;;;;;;;5051403;28;19925;-72
2023/10/25 06:50:25;;;;;;;;;;;;;;;;;;5046614;28;19925;-72
2023/10/25 06:52:52;;;;;;;;;;;;;;;;;;5051780;28;21953;-71
2023/10/25 06:55:19;;;;;;;;;;;;;;;;;;5048554;28;19925;-71
2023/10/25 06:57:46;;;;;;;;;;;;;;;;;;5048652;28;20428;-69
2023/10/25 07:00:15;;;;;;;;;;;;;;;;;;5052484;28;20354;-69
2023/10/25 07:02:43;;;;;;;;;;;;;;;;;;5052269;28;20062;-70
2023/10/25 07:05:10;;;;;;;;;;;;;;;;;;5057786;28;19924;-70
2023/10/25 07:07:37;;;;;;;;;;;;;;;;;;5054804;28;19986;-70
2023/10/25 07:10:04;;;;;;;;;;;;;;;;;;5048478;28;19940;-72
2023/10/25 07:12:31;;;;;;;;;;;;;;;;;;5045148;28;20027;-71
2023/10/25 07:14:58;;;;;;;;;;;;;;;;;;5054299;28;19932;-71
2023/10/25 07:17:27;;;;;;;;;;;;;;;;;;5053414;28;19936;-71
2023/10/25 07:19:54;;;;;;;;;;;;;;;;;;5052616;28;19972;-71
2023/10/25 07:22:21;;;;;;;;;;;;;;;;;;5054363;28;20516;-70
2023/10/25 07:24:48;;;;;;;;;;;;;;;;;;5049553;28;19929;-70
2023/10/25 07:27:15;;;;;;;;;;;;;;;;;;5048489;28;19944;-70
2023/10/25 07:29:42;;;;;;;;;;;;;;;;;;5051944;28;20443;-69
2023/10/25 07:32:09;;;;;;;;;;;;;;;;;;5048529;28;19925;-70
2023/10/25 07:34:37;;;;;;;;;;;;;;;;;;5060474;28;19928;-71
2023/10/25 07:37:04;;;;;;;;;;;;;;;;;;5054155;28;19928;-69
2023/10/25 07:39:31;;;;;;;;;;;;;;;;;;5052899;28;19933;-69
2023/10/25 07:41:59;;;;;;;;;;;;;;;;;;5053886;28;19924;-69
2023/10/25 07:44:26;;;;;;;;;;;;;;;;;;5044697;28;19935;-70
2023/10/25 07:46:53;;;;;;;;;;;;;;;;;;5051138;28;19929;-70
2023/10/25 07:49:20;;;;;;;;;;;;;;;;;;5039612;28;19925;-69
2023/10/25 07:51:47;;;;;;;;;;;;;;;;;;5053067;28;20002;-69
2023/10/25 07:54:14;;;;;;;;;;;;;;;;;;5050317;28;19932;-69
2023/10/25 07:56:41;;;;;;;;;;;;;;;;;;5046906;28;20399;-69
2023/10/25 07:59:09;;;;;;;;;;;;;;;;;;5051230;28;19936;-70
2023/10/25 08:01:37;;;;;;;;;;;;;;;;;;5048367;28;20329;-70
2023/10/25 08:04:05;;;;;;;;;;;;;;;;;;5048951;28;19925;-69
2023/10/25 08:06:31;;;;;;;;;;;;;;;;;;5049188;28;19924;-69
2023/10/25 08:08:59;;;;;;;;;;;;;;;;;;5048090;28;20272;-69
2023/10/25 08:11:26;;;;;;;;;;;;;;;;;;5052702;28;19924;-69
2023/10/25 08:13:53;;;;;;;;;;;;;;;;;;5061965;28;19928;-69
2023/10/25 08:16:20;;;;;;;;;;;;;;;;;;5046391;28;19929;-69
2023/10/25 08:18:47;;;;;;;;;;;;;;;;;;5045883;28;19957;-69
2023/10/25 08:21:14;;;;;;;;;;;;;;;;;;5052965;28;19947;-69
2023/10/25 08:23:41;;;;;;;;;;;;;;;;;;5048475;28;19946;-68
2023/10/25 08:26:08;;;;;;;;;;;;;;;;;;5048682;28;20337;-69
2023/10/25 08:28:35;;;;;;;;;;;;;;;;;;5051231;28;19937;-69
2023/10/25 08:31:02;;;;;;;;;;;;;;;;;;5044854;28;19936;-69
2023/10/25 08:33:29;;;;;;;;;;;;;;;;;;5047423;28;19959;-69
2023/10/25 08:35:56;;;;;;;;;;;;;;;;;;5049525;28;20010;-70
2023/10/25 08:38:23;;;;;;;;;;;;;;;;;;5038495;28;19979;-69
2023/10/25 08:40:50;;;;;;;;;;;;;;;;;;5048666;28;20076;-69
2023/10/25 08:43:18;;;;;;;;;;;;;;;;;;5050599;28;20323;-69
2023/10/25 08:45:45;;;;;;;;;;;;;;;;;;5050012;28;20485;-69
2023/10/25 08:48:12;;;;;;;;;;;;;;;;;;5050497;28;19924;-70
2023/10/25 08:50:39;;;;;;;;;;;;;;;;;;5047149;28;20276;-70
2023/10/25 08:53:06;;;;;;;;;;;;;;;;;;5050080;28;19979;-69
2023/10/25 08:55:33;;;;;;;;;;;;;;;;;;5045645;28;20352;-69
2023/10/25 08:58:00;;;;;;;;;;;;;;;;;;5055515;28;19925;-69
2023/10/25 09:00:31;;;;;;;;;;;;;;;;;;5047031;28;20376;-69
2023/10/25 09:02:59;;;;;;;;;;;;;;;;;;5054429;28;19950;-69
2023/10/25 09:05:26;;;;;;;;;;;;;;;;;;5055142;28;19925;-68
2023/10/25 09:07:53;;;;;;;;;;;;;;;;;;5050239;28;19972;-68
2023/10/25 09:10:22;;;;;;;;;;;;;;;;;;5061297;28;20464;-68
2023/10/25 09:12:49;;;;;;;;;;;;;;;;;;5063927;28;19957;-69
2023/10/25 09:15:16;;;;;;;;;;;;;;;;;;5054220;28;19933;-68
2023/10/25 09:17:44;;;;;;;;;;;;;;;;;;5057109;28;19960;-68
2023/10/25 09:20:11;;;;;;;;;;;;;;;;;;5064805;28;19975;-68
2023/10/25 09:22:38;;;;;;;;;;;;;;;;;;5054774;28;19960;-68
2023/10/25 09:25:05;;;;;;;;;;;;;;;;;;5051792;28;20406;-67
2023/10/25 09:27:32;;;;;;;;;;;;;;;;;;5061913;28;20247;-66
2023/10/25 09:29:59;;;;;;;;;;;;;;;;;;5046432;28;19933;-66
2023/10/25 09:32:27;;;;;;;;;;;;;;;;;;5051976;28;20024;-66
2023/10/25 09:34:54;;;;;;;;;;;;;;;;;;5052000;28;19925;-67
2023/10/25 09:37:21;;;;;;;;;;;;;;;;;;5057960;28;19933;-66
2023/10/25 09:39:49;;;;;;;;;;;;;;;;;;5057170;28;20373;-67
2023/10/25 09:42:18;;;;;;;;;;;;;;;;;;5055965;28;20010;-67
2023/10/25 09:44:47;;;;;;;;;;;;;;;;;;5058207;28;20374;-68
2023/10/25 09:47:15;;;;;;;;;;;;;;;;;;5059064;28;19933;-71
2023/10/25 09:49:42;;;;;;;;;;;;;;;;;;5051614;28;19933;-71
2023/10/25 09:52:10;;;;;;;;;;;;;;;;;;5059116;28;19968;-71
2023/10/25 09:54:37;;;;;;;;;;;;;;;;;;5053190;28;19925;-70
2023/10/25 09:57:05;;;;;;;;;;;;;;;;;;5056445;28;19970;-74
2023/10/25 09:59:32;;;;;;;;;;;;;;;;;;5058351;28;20004;-73
2023/10/25 10:01:59;;;;;;;;;;;;;;;;;;5051903;28;19948;-73
2023/10/25 10:04:26;;;;;;;;;;;;;;;;;;5051726;28;19929;-73
2023/10/25 10:06:53;;;;;;;;;;;;;;;;;;5056818;28;19925;-74
2023/10/25 10:09:20;;;;;;;;;;;;;;;;;;5053964;28;20464;-73
2023/10/25 10:11:47;;;;;;;;;;;;;;;;;;5059886;28;19924;-74
2023/10/25 10:14:14;;;;;;;;;;;;;;;;;;5047247;28;19924;-74
2023/10/25 10:16:41;;;;;;;;;;;;;;;;;;5054507;28;19978;-71
2023/10/25 10:19:08;;;;;;;;;;;;;;;;;;5052872;28;19924;-69
2023/10/25 10:21:35;;;;;;;;;;;;;;;;;;5051390;28;20432;-68
2023/10/25 10:24:02;;;;;;;;;;;;;;;;;;5043235;28;19974;-68
2023/10/25 10:26:29;;;;;;;;;;;;;;;;;;5053886;28;20441;-72
2023/10/25 10:28:56;;;;;;;;;;;;;;;;;;5062189;28;19924;-69
2023/10/25 10:31:23;;;;;;;;;;;;;;;;;;5056592;28;19994;-69
2023/10/25 10:33:50;;;;;;;;;;;;;;;;;;5055990;28;19932;-69
2023/10/25 10:36:17;;;;;;;;;;;;;;;;;;5059807;28;19932;-70
2023/10/25 10:38:45;;;;;;;;;;;;;;;;;;5051230;28;19925;-70
2023/10/25 10:41:12;;;;;;;;;;;;;;;;;;5049351;28;20306;-69
2023/10/25 10:43:39;;;;;;;;;;;;;;;;;;5054550;28;20283;-71
2023/10/25 10:46:07;;;;;;;;;;;;;;;;;;5057537;28;19925;-66
2023/10/25 10:48:34;;;;;;;;;;;;;;;;;;5056473;28;19931;-67
2023/10/25 10:51:02;;;;;;;;;;;;;;;;;;5051348;28;19976;-68
2023/10/25 10:53:29;;;;;;;;;;;;;;;;;;5056897;28;20349;-70
2023/10/25 10:55:56;;;;;;;;;;;;;;;;;;5048685;28;19933;-70
2023/10/25 10:58:25;;;;;;;;;;;;;;;;;;5059029;28;19925;-70
2023/10/25 11:00:52;;;;;;;;;;;;;;;;;;5053676;28;19940;-70
2023/10/25 11:03:19;;;;;;;;;;;;;;;;;;5060840;28;19977;-70
2023/10/25 11:05:46;;;;;;;;;;;;;;;;;;5058156;28;20455;-70
2023/10/25 11:08:14;;;;;;;;;;;;;;;;;;5058924;28;20031;-70
2023/10/25 11:10:41;;;;;;;;;;;;;;;;;;5055302;28;20383;-70
2023/10/25 11:13:08;;;;;;;;;;;;;;;;;;5045755;28;19926;-69
2023/10/25 11:15:35;;;;;;;;;;;;;;;;;;5040501;28;20502;-70
2023/10/25 11:18:04;;;;;;;;;;;;;;;;;;5039300;28;19929;-69
2023/10/25 11:20:31;;;;;;;;;;;;;;;;;;5039093;28;20024;-69
2023/10/25 11:22:59;;;;;;;;;;;;;;;;;;5045611;28;19925;-70
2023/10/25 11:25:26;;;;;;;;;;;;;;;;;;5045706;28;19931;-69
2023/10/25 11:27:55;;;;;;;;;;;;;;;;;;5053267;28;19925;-70
2023/10/25 11:30:22;;;;;;;;;;;;;;;;;;5045935;28;19929;-70
2023/10/25 11:32:50;;;;;;;;;;;;;;;;;;5046487;28;19998;-70
2023/10/25 11:35:17;;;;;;;;;;;;;;;;;;5039741;28;20452;-69
2023/10/25 11:37:45;;;;;;;;;;;;;;;;;;5046016;28;19994;-70
2023/10/25 11:40:12;;;;;;;;;;;;;;;;;;5041588;28;19933;-71
2023/10/25 11:42:39;;;;;;;;;;;;;;;;;;5043418;28;20709;-70
2023/10/25 11:45:06;;;;;;;;;;;;;;;;;;5044079;28;19932;-70
2023/10/25 11:47:33;;;;;;;;;;;;;;;;;;5042649;28;20330;-71
2023/10/25 11:50:00;;;;;;;;;;;;;;;;;;5050916;28;19925;-70
2023/10/25 11:52:27;;;;;;;;;;;;;;;;;;5037220;28;20349;-70
2023/10/25 11:54:56;;;;;;;;;;;;;;;;;;5039709;28;19925;-70
2023/10/25 11:57:23;;;;;;;;;;;;;;;;;;5058412;28;19925;-70
2023/10/25 11:59:50;;;;;;;;;;;;;;;;;;5051094;28;19986;-70
2023/10/25 12:02:17;;;;;;;;;;;;;;;;;;5035992;28;19929;-70
2023/10/25 12:04:44;;;;;;;;;;;;;;;;;;5056420;28;19932;-70
2023/10/25 12:07:11;;;;;;;;;;;;;;;;;;5049835;28;20409;-71
2023/10/25 12:09:39;;;;;;;;;;;;;;;;;;5039227;28;19932;-69
2023/10/25 12:12:06;;;;;;;;;;;;;;;;;;5048977;28;19925;-69
2023/10/25 12:14:33;;;;;;;;;;;;;;;;;;5046224;28;19925;-68
2023/10/25 12:17:00;;;;;;;;;;;;;;;;;;5041052;28;19925;-69
2023/10/25 12:19:27;;;;;;;;;;;;;;;;;;5038869;28;19952;-71
2023/10/25 12:21:56;;;;;;;;;;;;;;;;;;5043544;28;19983;-70
2023/10/25 12:24:23;;;;;;;;;;;;;;;;;;5046094;28;20010;-70
2023/10/25 12:26:50;;;;;;;;;;;;;;;;;;5046460;28;20388;-69
2023/10/25 12:29:17;;;;;;;;;;;;;;;;;;5046958;28;19933;-70
2023/10/25 12:31:45;;;;;;;;;;;;;;;;;;5045613;28;19939;-70
2023/10/25 12:34:12;;;;;;;;;;;;;;;;;;5051085;28;20306;-71
2023/10/25 12:36:39;;;;;;;;;;;;;;;;;;5047522;28;19925;-70
2023/10/25 12:39:06;;;;;;;;;;;;;;;;;;5047752;28;19924;-69
2023/10/25 12:41:33;;;;;;;;;;;;;;;;;;5047319;28;19975;-70
2023/10/25 12:44:02;;;;;;;;;;;;;;;;;;5048855;28;20351;-69
2023/10/25 12:46:29;;;;;;;;;;;;;;;;;;5046619;28;19924;-69
2023/10/25 12:48:56;;;;;;;;;;;;;;;;;;5038401;28;19986;-70
2023/10/25 12:51:23;;;;;;;;;;;;;;;;;;5048988;28;19928;-69
2023/10/25 12:53:50;;;;;;;;;;;;;;;;;;5041232;28;19978;-70
2023/10/25 12:56:17;;;;;;;;;;;;;;;;;;5045184;28;19933;-71
2023/10/25 12:58:44;;;;;;;;;;;;;;;;;;5045574;28;19928;-70
2023/10/25 13:01:11;;;;;;;;;;;;;;;;;;5044798;28;20586;-70
2023/10/25 13:03:38;;;;;;;;;;;;;;;;;;5040303;28;19932;-70
2023/10/25 13:06:05;;;;;;;;;;;;;;;;;;5040982;28;19948;-69
2023/10/25 13:08:32;;;;;;;;;;;;;;;;;;5035074;28;19933;-69
2023/10/25 13:11:00;;;;;;;;;;;;;;;;;;5043269;28;19944;-69
2023/10/25 13:13:27;;;;;;;;;;;;;;;;;;5045945;28;19968;-69
2023/10/25 13:15:54;;;;;;;;;;;;;;;;;;5044625;28;20403;-69
2023/10/25 13:18:21;;;;;;;;;;;;;;;;;;5041797;28;19980;-69
2023/10/25 13:20:48;;;;;;;;;;;;;;;;;;5037320;28;19925;-70
2023/10/25 13:23:15;;;;;;;;;;;;;;;;;;5047107;28;19933;-68
2023/10/25 13:25:42;;;;;;;;;;;;;;;;;;5038093;28;20400;-69
2023/10/25 13:28:09;;;;;;;;;;;;;;;;;;5045288;28;19979;-70
2023/10/25 13:30:36;;;;;;;;;;;;;;;;;;5045293;28;19925;-71
2023/10/25 13:33:03;;;;;;;;;;;;;;;;;;5042347;28;19925;-70
2023/10/25 13:35:31;;;;;;;;;;;;;;;;;;5045968;28;19932;-70
2023/10/25 13:37:58;;;;;;;;;;;;;;;;;;5048644;28;20395;-70
2023/10/25 13:40:26;;;;;;;;;;;;;;;;;;5052659;28;19924;-70
2023/10/25 13:42:53;;;;;;;;;;;;;;;;;;5042194;28;19925;-70
2023/10/25 13:45:20;;;;;;;;;;;;;;;;;;5051353;28;20441;-70
2023/10/25 13:47:47;;;;;;;;;;;;;;;;;;5046550;28;20423;-70
2023/10/25 13:50:14;;;;;;;;;;;;;;;;;;5045846;28;19924;-72
2023/10/25 13:52:41;;;;;;;;;;;;;;;;;;5068621;28;20053;-69
2023/10/25 13:55:08;;;;;;;;;;;;;;;;;;5044679;28;20018;-69
2023/10/25 13:57:35;;;;;;;;;;;;;;;;;;5045903;28;19933;-70
2023/10/25 14:00:05;;;;;;;;;;;;;;;;;;5042086;28;19925;-70
2023/10/25 14:02:32;;;;;;;;;;;;;;;;;;5043036;28;19928;-70
2023/10/25 14:04:59;;;;;;;;;;;;;;;;;;5040808;28;19971;-70
2023/10/25 14:07:27;;;;;;;;;;;;;;;;;;5053816;28;19925;-71
2023/10/25 14:09:54;;;;;;;;;;;;;;;;;;5051971;28;19975;-70
2023/10/25 14:12:21;;;;;;;;;;;;;;;;;;5047093;28;19932;-71
2023/10/25 14:14:48;;;;;;;;;;;;;;;;;;5049147;28;19933;-70
2023/10/25 14:17:15;;;;;;;;;;;;;;;;;;5047805;28;19971;-69
2023/10/25 14:19:42;;;;;;;;;;;;;;;;;;5060499;28;19979;-69
2023/10/25 14:22:09;;;;;;;;;;;;;;;;;;5043120;28;19925;-70
2023/10/25 14:24:36;;;;;;;;;;;;;;;;;;5049114;28;19924;-70
2023/10/25 14:27:03;;;;;;;;;;;;;;;;;;5051627;28;19932;-70
2023/10/25 14:29:30;;;;;;;;;;;;;;;;;;5048718;28;20268;-70
2023/10/25 14:31:57;;;;;;;;;;;;;;;;;;5051536;28;20325;-69
2023/10/25 14:34:24;;;;;;;;;;;;;;;;;;5049341;28;19925;-70
2023/10/25 14:36:51;;;;;;;;;;;;;;;;;;5038901;28;20002;-70
2023/10/25 14:39:18;;;;;;;;;;;;;;;;;;5045759;28;19929;-70
2023/10/25 14:41:45;;;;;;;;;;;;;;;;;;5052299;28;19929;-70
2023/10/25 14:44:12;;;;;;;;;;;;;;;;;;5043422;28;19925;-70
2023/10/25 14:46:39;;;;;;;;;;;;;;;;;;5047589;28;19925;-70
2023/10/25 14:49:06;;;;;;;;;;;;;;;;;;5051640;28;19970;-70
2023/10/25 14:51:33;;;;;;;;;;;;;;;;;;5073711;28;19924;-70
2023/10/25 14:54:00;;;;;;;;;;;;;;;;;;5042669;28;19925;-71
2023/10/25 14:56:27;;;;;;;;;;;;;;;;;;5039386;28;20347;-69
2023/10/25 14:58:55;;;;;;;;;;;;;;;;;;5036758;28;19940;-70
2023/10/25 15:01:22;;;;;;;;;;;;;;;;;;5037751;28;20024;-70
2023/10/25 15:03:49;;;;;;;;;;;;;;;;;;5045448;28;19924;-71
2023/10/25 15:06:18;;;;;;;;;;;;;;;;;;5052654;28;20023;-70
2023/10/25 15:08:45;;;;;;;;;;;;;;;;;;5047906;28;19929;-71
2023/10/25 15:11:12;;;;;;;;;;;;;;;;;;5043941;28;19925;-70
2023/10/25 15:13:39;;;;;;;;;;;;;;;;;;5052090;28;19933;-69
2023/10/25 15:16:05;;;;;;;;;;;;;;;;;;5048724;28;19970;-70
2023/10/25 15:18:32;;;;;;;;;;;;;;;;;;5048205;28;19983;-70
2023/10/25 15:20:59;;;;;;;;;;;;;;;;;;5047980;28;20008;-69
2023/10/25 15:23:26;;;;;;;;;;;;;;;;;;5049603;28;19933;-69
2023/10/25 15:25:53;;;;;;;;;;;;;;;;;;5051408;28;19925;-68
2023/10/25 15:28:20;;;;;;;;;;;;;;;;;;5037485;28;19959;-69
2023/10/25 15:30:47;;;;;;;;;;;;;;;;;;5046466;28;19932;-69
2023/10/25 15:33:14;;;;;;;;;;;;;;;;;;5051962;28;20457;-69
2023/10/25 15:35:41;;;;;;;;;;;;;;;;;;5043963;28;19936;-70
2023/10/25 15:38:08;;;;;;;;;;;;;;;;;;5038514;28;20387;-69
2023/10/25 15:40:35;;;;;;;;;;;;;;;;;;5037446;28;20375;-70
2023/10/25 15:43:02;;;;;;;;;;;;;;;;;;5045808;28;19932;-69
2023/10/25 15:45:29;;;;;;;;;;;;;;;;;;5048803;28;19995;-70
2023/10/25 15:47:56;;;;;;;;;;;;;;;;;;5052275;28;19998;-70
2023/10/25 15:50:24;;;;;;;;;;;;;;;;;;5051185;28;19944;-70
2023/10/25 15:52:51;;;;;;;;;;;;;;;;;;5043775;28;20012;-71
2023/10/25 15:55:18;;;;;;;;;;;;;;;;;;5062826;28;19977;-70
2023/10/25 15:57:45;;;;;;;;;;;;;;;;;;5053279;28;19925;-70
2023/10/25 16:00:12;;;;;;;;;;;;;;;;;;5046800;28;19925;-68
2023/10/25 16:02:39;;;;;;;;;;;;;;;;;;5045984;28;20375;-69
2023/10/25 16:05:06;;;;;;;;;;;;;;;;;;5055507;28;19924;-69
2023/10/25 16:07:33;;;;;;;;;;;;;;;;;;5038086;28;20335;-70
2023/10/25 16:10:00;;;;;;;;;;;;;;;;;;5047697;28;19929;-70
2023/10/25 16:12:29;;;;;;;;;;;;;;;;;;5043478;28;19959;-70
2023/10/25 16:14:56;;;;;;;;;;;;;;;;;;5041873;28;20004;-70
2023/10/25 16:17:23;;;;;;;;;;;;;;;;;;5053032;28;19931;-70
2023/10/25 16:19:50;;;;;;;;;;;;;;;;;;5046391;28;19980;-70
2023/10/25 16:22:17;;;;;;;;;;;;;;;;;;5042502;28;20003;-71
2023/10/25 16:24:44;;;;;;;;;;;;;;;;;;5045283;28;19932;-69
2023/10/25 16:27:11;;;;;;;;;;;;;;;;;;5045389;28;19941;-70
2023/10/25 16:29:39;;;;;;;;;;;;;;;;;;5042721;28;20250;-70
2023/10/25 16:32:06;;;;;;;;;;;;;;;;;;5046498;28;19933;-70
2023/10/25 16:34:33;;;;;;;;;;;;;;;;;;5047506;28;19931;-70
2023/10/25 16:37:01;;;;;;;;;;;;;;;;;;5040074;28;20333;-71
2023/10/25 16:39:29;;;;;;;;;;;;;;;;;;5037808;28;19987;-71
2023/10/25 16:41:56;;;;;;;;;;;;;;;;;;5046626;28;19964;-69
2023/10/25 16:44:23;;;;;;;;;;;;;;;;;;5037682;28;19929;-72